Time;durP1;ratioP1;P1;durP2;ratioP2;P2;SDS_P1;SDS_P2;PMS_P1;PMS_P2;Temp;Humidity;BMP_temperature;BMP_pressure;BME280_temperature;BME280_humidity;BME280_pressure;Samples;Min_cycle;Max_cycle;Signal;HPM_P1;HPM_P2
2023/03/10 00:02:18;;;;;;;12.70;9.25;;;1.90;99.90;;;;;;4974555;28;20045;-65
2023/03/10 00:04:48;;;;;;;11.45;8.35;;;1.80;99.90;;;;;;4970499;28;20043;-65
2023/03/10 00:07:13;;;;;;;11.25;8.15;;;1.80;99.90;;;;;;4977468;28;20500;-65
2023/03/10 00:09:39;;;;;;;12.60;7.95;;;1.80;99.90;;;;;;4977334;28;20043;-65
2023/03/10 00:12:05;;;;;;;12.52;8.85;;;1.80;99.90;;;;;;4979631;28;20489;-65
2023/03/10 00:14:31;;;;;;;10.60;8.55;;;1.80;99.90;;;;;;4987007;28;20054;-65
2023/03/10 00:16:57;;;;;;;15.07;8.25;;;1.80;99.90;;;;;;4979110;28;20309;-65
2023/03/10 00:19:22;;;;;;;9.95;8.88;;;1.80;99.90;;;;;;4981308;28;20055;-65
2023/03/10 00:21:48;;;;;;;12.27;9.18;;;1.80;99.90;;;;;;4977185;28;20049;-65
2023/03/10 00:24:14;;;;;;;8.82;7.13;;;1.80;99.90;;;;;;4972468;28;20122;-65
2023/03/10 00:26:39;;;;;;;9.90;7.72;;;1.80;99.90;;;;;;4970050;28;20448;-65
2023/03/10 00:29:05;;;;;;;10.45;8.27;;;1.80;99.90;;;;;;4982575;28;20421;-65
2023/03/10 00:31:31;;;;;;;10.77;8.25;;;1.70;99.90;;;;;;4988352;28;20137;-65
2023/03/10 00:33:57;;;;;;;10.70;7.63;;;1.80;99.90;;;;;;4988032;28;20092;-65
2023/03/10 00:36:26;;;;;;;11.13;8.10;;;1.80;99.90;;;;;;4987417;28;20507;-65
2023/03/10 00:38:53;;;;;;;9.82;7.03;;;1.70;99.90;;;;;;4997490;28;20055;-65
2023/03/10 00:41:22;;;;;;;10.80;7.72;;;1.70;99.90;;;;;;4990630;28;20417;-65
2023/03/10 00:43:48;;;;;;;11.98;8.30;;;1.70;99.90;;;;;;4988767;28;20042;-65
2023/03/10 00:46:15;;;;;;;10.23;8.27;;;1.80;99.90;;;;;;4986591;28;20502;-65
2023/03/10 00:48:41;;;;;;;10.43;7.70;;;1.80;99.90;;;;;;4989617;28;20047;-65
2023/03/10 00:51:07;;;;;;;11.73;8.05;;;1.70;99.90;;;;;;4994329;28;20221;-65
2023/03/10 00:53:35;;;;;;;10.95;7.25;;;1.70;99.90;;;;;;4987607;28;20129;-65
2023/03/10 00:56:07;;;;;;;12.55;8.30;;;1.80;99.90;;;;;;4988318;28;20054;-65
2023/03/10 00:58:33;;;;;;;12.93;8.02;;;1.80;99.90;;;;;;4984816;28;20450;-64
2023/03/10 01:01:00;;;;;;;9.18;7.05;;;1.80;99.90;;;;;;4976051;28;20057;-65
2023/03/10 01:03:27;;;;;;;9.45;7.38;;;1.70;99.90;;;;;;4986429;28;20149;-65
2023/03/10 01:05:54;;;;;;;13.55;7.95;;;1.70;99.90;;;;;;4988328;28;20046;-65
2023/03/10 01:08:20;;;;;;;11.98;8.45;;;1.70;99.90;;;;;;4986871;28;20077;-65
2023/03/10 01:10:46;;;;;;;10.00;7.55;;;1.70;99.90;;;;;;4989670;28;20510;-65
2023/03/10 01:13:14;;;;;;;11.23;8.23;;;1.70;99.90;;;;;;4990982;28;20143;-65
2023/03/10 01:15:43;;;;;;;11.02;7.15;;;1.70;99.90;;;;;;4970027;28;20055;-65
2023/03/10 01:18:09;;;;;;;11.35;8.50;;;1.70;99.90;;;;;;4988119;28;20049;-65
2023/03/10 01:20:35;;;;;;;8.35;7.47;;;1.80;99.90;;;;;;4986391;28;20456;-65
2023/03/10 01:23:01;;;;;;;10.98;8.23;;;1.70;99.90;;;;;;4988206;28;20030;-65
2023/03/10 01:25:27;;;;;;;13.43;8.65;;;1.70;99.90;;;;;;4969351;28;20468;-65
2023/03/10 01:27:53;;;;;;;11.30;7.72;;;1.70;99.90;;;;;;4987765;28;20089;-65
2023/03/10 01:30:19;;;;;;;9.77;8.35;;;1.80;99.90;;;;;;4988518;28;20116;-65
2023/03/10 01:32:45;;;;;;;11.20;7.88;;;1.80;99.90;;;;;;4987742;28;20572;-65
2023/03/10 01:35:11;;;;;;;10.52;7.65;;;1.80;99.90;;;;;;4988332;28;20073;-65
2023/03/10 01:37:37;;;;;;;11.68;8.57;;;1.80;99.90;;;;;;4986318;28;20576;-65
2023/03/10 01:40:04;;;;;;;12.05;8.93;;;1.80;99.90;;;;;;4988124;28;20484;-65
2023/03/10 01:42:30;;;;;;;12.10;9.00;;;1.80;99.90;;;;;;4986802;28;20087;-65
2023/03/10 01:45:22;;;;;;;11.38;7.97;;;1.80;99.90;;;;;;4984475;28;20133;-65
2023/03/10 01:47:48;;;;;;;10.90;8.18;;;1.80;99.90;;;;;;4965869;28;20054;-65
2023/03/10 01:50:18;;;;;;;12.45;8.23;;;1.80;99.90;;;;;;4990523;28;20130;-65
2023/03/10 01:52:55;;;;;;;11.43;9.27;;;1.80;99.90;;;;;;4999921;28;20429;-65
2023/03/10 01:55:30;;;;;;;12.98;9.10;;;1.80;99.90;;;;;;4975548;28;20050;-65
2023/03/10 01:57:56;;;;;;;12.95;9.45;;;1.80;99.90;;;;;;4991860;28;20053;-65
2023/03/10 02:00:28;;;;;;;11.07;8.48;;;1.80;99.90;;;;;;4972953;28;20062;-65
2023/03/10 02:03:06;;;;;;;12.32;9.20;;;1.80;99.90;;;;;;4965800;28;20141;-65
2023/03/10 02:05:35;;;;;;;11.48;8.75;;;1.90;99.90;;;;;;4973655;28;20053;-65
2023/03/10 02:08:01;;;;;;;12.35;9.15;;;1.90;99.90;;;;;;4989866;28;20582;-65
2023/03/10 02:10:28;;;;;;;12.65;9.32;;;1.90;99.90;;;;;;4991275;28;20042;-65
2023/03/10 02:12:54;;;;;;;11.90;8.93;;;1.90;99.90;;;;;;4989797;28;20105;-65
2023/03/10 02:15:20;;;;;;;12.70;9.68;;;1.80;99.90;;;;;;4961438;28;20054;-65
2023/03/10 02:17:47;;;;;;;10.93;7.82;;;1.90;99.90;;;;;;4990010;28;20125;-65
2023/03/10 02:20:25;;;;;;;14.38;10.35;;;1.90;99.90;;;;;;4991329;28;20061;-65
2023/03/10 02:22:51;;;;;;;12.00;9.48;;;1.90;99.90;;;;;;4991404;28;20217;-65
2023/03/10 02:25:44;;;;;;;15.90;10.73;;;1.90;99.90;;;;;;4989779;28;20564;-65
2023/03/10 02:28:10;;;;;;;12.85;10.00;;;1.90;99.90;;;;;;4990817;28;20090;-65
2023/03/10 02:30:43;;;;;;;14.02;10.50;;;1.90;99.90;;;;;;4981227;28;20074;-65
2023/03/10 02:33:18;;;;;;;14.98;10.60;;;1.90;99.90;;;;;;4991457;28;20053;-65
2023/03/10 02:35:44;;;;;;;15.00;11.75;;;1.90;99.90;;;;;;4990666;28;20456;-65
2023/03/10 02:38:10;;;;;;;16.80;12.95;;;1.90;99.90;;;;;;4989184;28;20045;-65
2023/03/10 02:40:39;;;;;;;16.88;12.20;;;1.90;99.90;;;;;;4979724;28;20054;-65
2023/03/10 02:43:27;;;;;;;19.63;14.02;;;1.90;99.90;;;;;;4973957;28;20077;-65
2023/03/10 02:45:57;;;;;;;20.42;13.63;;;1.90;99.90;;;;;;4963957;28;20132;-65
2023/03/10 02:48:29;;;;;;;19.95;12.88;;;1.90;99.90;;;;;;4990701;28;20193;-65
2023/03/10 02:50:57;;;;;;;21.27;15.15;;;1.90;99.90;;;;;;4989409;28;20105;-65
2023/03/10 02:53:25;;;;;;;18.88;13.77;;;1.90;99.90;;;;;;4973888;28;20508;-65
2023/03/10 02:55:53;;;;;;;18.58;13.73;;;1.90;99.90;;;;;;4988772;28;20050;-65
2023/03/10 02:58:20;;;;;;;17.23;12.20;;;1.90;99.90;;;;;;4990521;28;20054;-65
2023/03/10 03:00:47;;;;;;;19.05;14.45;;;1.80;99.90;;;;;;4989549;28;20072;-65
2023/03/10 03:03:15;;;;;;;19.33;14.63;;;1.90;99.90;;;;;;4998825;28;20056;-65
2023/03/10 03:05:41;;;;;;;19.92;14.63;;;1.80;99.90;;;;;;4990265;28;20055;-65
2023/03/10 03:08:08;;;;;;;19.13;13.30;;;1.80;99.90;;;;;;4989127;28;20416;-65
2023/03/10 03:10:34;;;;;;;17.23;13.48;;;1.80;99.90;;;;;;4989253;28;20459;-65
2023/03/10 03:13:00;;;;;;;20.77;13.48;;;1.90;99.90;;;;;;4974320;28;20579;-65
2023/03/10 03:15:26;;;;;;;19.23;13.57;;;1.90;99.90;;;;;;4994721;28;20118;-65
2023/03/10 03:17:57;;;;;;;19.45;13.25;;;1.90;99.90;;;;;;4988338;28;20497;-65
2023/03/10 03:20:24;;;;;;;21.02;14.65;;;1.90;99.90;;;;;;4972601;28;20126;-65
2023/03/10 03:22:49;;;;;;;18.92;14.02;;;1.90;99.90;;;;;;4984475;28;20292;-65
2023/03/10 03:25:17;;;;;;;18.25;14.13;;;1.90;99.90;;;;;;4988631;28;20038;-65
2023/03/10 03:27:44;;;;;;;14.95;11.77;;;1.90;99.90;;;;;;4972136;28;20470;-65
2023/03/10 03:30:22;;;;;;;20.25;13.35;;;1.90;99.90;;;;;;4988179;28;20413;-65
2023/03/10 03:32:48;;;;;;;20.15;13.98;;;1.90;99.90;;;;;;5001122;28;20041;-65
2023/03/10 03:35:17;;;;;;;16.70;12.63;;;1.90;99.90;;;;;;4988491;28;20362;-65
2023/03/10 03:37:43;;;;;;;20.67;13.45;;;1.90;99.90;;;;;;4988647;28;20046;-65
2023/03/10 03:40:13;;;;;;;18.23;14.32;;;1.90;99.90;;;;;;4989925;28;20038;-65
2023/03/10 03:42:44;;;;;;;18.55;13.77;;;1.90;99.90;;;;;;4970158;28;20398;-65
2023/03/10 03:45:11;;;;;;;17.55;12.60;;;1.90;99.90;;;;;;4989620;28;20113;-65
2023/03/10 03:47:37;;;;;;;19.67;14.73;;;1.90;99.90;;;;;;4970490;28;20050;-65
2023/03/10 03:50:03;;;;;;;23.63;15.07;;;2.00;99.90;;;;;;4989718;28;20404;-65
2023/03/10 03:52:29;;;;;;;19.63;13.98;;;1.90;99.90;;;;;;4971805;28;20050;-65
2023/03/10 03:54:55;;;;;;;24.05;16.63;;;1.90;99.90;;;;;;4988834;28;20039;-65
2023/03/10 03:57:21;;;;;;;21.17;15.43;;;1.90;99.90;;;;;;4989505;28;20807;-65
2023/03/10 03:59:46;;;;;;;25.15;15.82;;;1.90;99.90;;;;;;4987915;28;20145;-65
2023/03/10 04:02:12;;;;;;;25.60;16.52;;;1.90;99.90;;;;;;4972175;28;20400;-65
2023/03/10 04:04:38;;;;;;;28.85;15.60;;;1.90;99.90;;;;;;4971296;28;20062;-65
2023/03/10 04:07:04;;;;;;;27.20;19.20;;;1.90;99.90;;;;;;5003144;28;20050;-65
2023/03/10 04:09:29;;;;;;;29.25;18.75;;;1.80;99.90;;;;;;4997830;28;20042;-65
2023/03/10 04:11:55;;;;;;;29.42;18.65;;;1.80;99.90;;;;;;4988731;28;20046;-65
2023/03/10 04:14:21;;;;;;;28.98;17.77;;;1.90;99.90;;;;;;4969204;28;20046;-65
2023/03/10 04:16:48;;;;;;;32.35;22.27;;;1.90;99.90;;;;;;4970362;28;20063;-65
2023/03/10 04:19:14;;;;;;;34.65;22.80;;;1.90;99.90;;;;;;4971597;28;20047;-65
2023/03/10 04:21:40;;;;;;;33.78;21.73;;;1.80;99.90;;;;;;4991583;28;20042;-65
2023/03/10 04:24:06;;;;;;;37.90;24.83;;;1.90;99.90;;;;;;4988939;28;20050;-65
2023/03/10 04:26:32;;;;;;;32.88;19.98;;;1.80;99.90;;;;;;4986326;28;20084;-65
2023/03/10 04:28:58;;;;;;;40.30;25.42;;;1.80;99.90;;;;;;4988481;28;20062;-65
2023/03/10 04:31:25;;;;;;;42.17;26.80;;;1.80;99.90;;;;;;5000781;28;20049;-65
2023/03/10 04:33:51;;;;;;;42.95;25.13;;;1.80;99.90;;;;;;4970677;28;20433;-65
2023/03/10 04:36:17;;;;;;;42.42;28.75;;;1.80;99.90;;;;;;4988948;28;20177;-65
2023/03/10 04:38:44;;;;;;;41.58;27.13;;;1.80;99.90;;;;;;4970284;28;20054;-65
2023/03/10 04:41:10;;;;;;;40.83;27.02;;;1.80;99.90;;;;;;4992825;28;20060;-65
2023/03/10 04:43:36;;;;;;;48.20;29.20;;;1.80;99.90;;;;;;4975943;28;20054;-65
2023/03/10 04:46:02;;;;;;;41.10;27.42;;;1.80;99.90;;;;;;4978121;28;20137;-65
2023/03/10 04:48:28;;;;;;;45.83;26.75;;;1.80;99.90;;;;;;4987277;28;20038;-65
2023/03/10 04:50:59;;;;;;;41.53;28.13;;;1.80;99.90;;;;;;4990005;28;20407;-65
2023/03/10 04:53:25;;;;;;;38.03;25.20;;;1.80;99.90;;;;;;4988149;28;20512;-65
2023/03/10 04:55:51;;;;;;;38.83;26.17;;;1.80;99.90;;;;;;4986910;28;20046;-65
2023/03/10 04:58:18;;;;;;;36.63;23.92;;;1.80;99.90;;;;;;4989891;28;20056;-65
2023/03/10 05:00:44;;;;;;;36.72;22.83;;;1.80;99.90;;;;;;4970558;28;20069;-65
2023/03/10 05:03:10;;;;;;;35.72;21.77;;;1.80;99.90;;;;;;4971429;28;20574;-65
2023/03/10 05:05:36;;;;;;;36.03;23.77;;;1.80;99.90;;;;;;4992958;28;20400;-65
2023/03/10 05:08:03;;;;;;;34.65;21.85;;;1.80;99.90;;;;;;4998525;28;20046;-65
2023/03/10 05:10:28;;;;;;;29.58;19.50;;;1.80;99.90;;;;;;4990896;28;20076;-65
2023/03/10 05:12:54;;;;;;;27.20;18.63;;;1.80;99.90;;;;;;4987557;28;20467;-65
2023/03/10 05:15:20;;;;;;;24.77;18.25;;;1.80;99.90;;;;;;4988443;28;20069;-65
2023/03/10 05:17:46;;;;;;;30.60;18.27;;;1.80;99.90;;;;;;4986160;28;20038;-65
2023/03/10 05:20:13;;;;;;;22.40;14.98;;;1.80;99.90;;;;;;4970860;28;20046;-65
2023/03/10 05:22:40;;;;;;;23.98;16.58;;;1.80;99.90;;;;;;5000068;28;20049;-65
2023/03/10 05:25:08;;;;;;;23.30;15.25;;;1.80;99.90;;;;;;4991833;28;20043;-65
2023/03/10 05:27:36;;;;;;;21.63;14.63;;;1.70;99.90;;;;;;4991610;28;20454;-65
2023/03/10 05:30:06;;;;;;;20.85;13.32;;;1.70;99.90;;;;;;4991168;28;20046;-65
2023/03/10 05:32:35;;;;;;;26.33;16.00;;;1.80;99.90;;;;;;4995741;28;20557;-65
2023/03/10 05:35:02;;;;;;;22.58;13.00;;;1.80;99.90;;;;;;4990347;28;20089;-65
2023/03/10 05:37:28;;;;;;;19.70;13.65;;;1.70;99.90;;;;;;4992472;28;20035;-65
2023/03/10 05:39:54;;;;;;;16.70;13.00;;;1.70;99.90;;;;;;4990102;28;20516;-65
2023/03/10 05:42:20;;;;;;;18.23;11.68;;;1.70;99.90;;;;;;4974843;28;20054;-65
2023/03/10 05:44:45;;;;;;;23.02;12.98;;;1.70;99.90;;;;;;4992962;28;20529;-65
2023/03/10 05:47:12;;;;;;;19.17;12.00;;;1.60;99.90;;;;;;4991616;28;20074;-65
2023/03/10 05:49:39;;;;;;;17.08;12.50;;;1.60;99.90;;;;;;4991771;28;20516;-65
2023/03/10 05:52:05;;;;;;;26.42;12.30;;;1.50;99.90;;;;;;4990596;28;20039;-65
2023/03/10 05:54:31;;;;;;;17.38;11.98;;;1.50;99.90;;;;;;4993128;28;20066;-64
2023/03/10 05:56:57;;;;;;;18.63;12.23;;;1.50;99.90;;;;;;4989772;28;20038;-64
2023/03/10 05:59:24;;;;;;;16.77;9.82;;;1.50;99.90;;;;;;4991885;28;20515;-64
2023/03/10 06:01:50;;;;;;;18.95;11.68;;;1.40;99.90;;;;;;4989955;28;20385;-64
2023/03/10 06:04:16;;;;;;;16.35;11.95;;;1.40;99.90;;;;;;4991437;28;20049;-64
2023/03/10 06:06:41;;;;;;;20.08;12.82;;;1.40;99.90;;;;;;4973407;28;20057;-64
2023/03/10 06:09:07;;;;;;;19.70;11.55;;;1.30;99.90;;;;;;4990427;28;20467;-64
2023/03/10 06:11:33;;;;;;;23.20;13.70;;;1.30;99.90;;;;;;4991867;28;20122;-64
2023/03/10 06:13:59;;;;;;;21.63;12.82;;;1.30;99.90;;;;;;5002937;28;20046;-64
2023/03/10 06:16:24;;;;;;;22.77;12.63;;;1.30;99.90;;;;;;4973530;28;20046;-64
2023/03/10 06:18:54;;;;;;;23.75;12.27;;;1.20;99.90;;;;;;4990394;28;20050;-63
2023/03/10 06:21:21;;;;;;;21.50;12.90;;;1.10;99.90;;;;;;4990936;28;20105;-64
2023/03/10 06:23:46;;;;;;;19.45;12.57;;;1.10;99.90;;;;;;4991337;28;20608;-63
2023/03/10 06:26:15;;;;;;;20.50;12.50;;;1.10;99.90;;;;;;4990025;28;20157;-64
2023/03/10 06:28:43;;;;;;;22.98;13.75;;;1.10;99.90;;;;;;4990925;28;20068;-63
2023/03/10 06:31:23;;;;;;;21.70;13.40;;;1.10;99.90;;;;;;4989215;28;20173;-64
2023/03/10 06:33:49;;;;;;;28.98;16.00;;;1.00;99.90;;;;;;4993057;28;20050;-64
2023/03/10 06:36:15;;;;;;;25.77;14.93;;;1.10;99.90;;;;;;4975051;28;20054;-63
2023/03/10 06:38:41;;;;;;;22.33;13.45;;;1.00;99.90;;;;;;4991168;28;20046;-63
2023/03/10 06:41:07;;;;;;;29.27;15.57;;;1.10;99.90;;;;;;4989686;28;20483;-63
2023/03/10 06:43:34;;;;;;;28.83;15.30;;;1.00;99.90;;;;;;4972706;28;20038;-63
2023/03/10 06:46:05;;;;;;;26.00;15.05;;;1.00;99.90;;;;;;4995114;28;20133;-63
2023/03/10 06:48:32;;;;;;;22.77;15.90;;;1.00;99.90;;;;;;4989405;28;20043;-63
2023/03/10 06:50:57;;;;;;;23.90;14.98;;;1.00;99.90;;;;;;4990428;28;20097;-63
2023/03/10 06:53:23;;;;;;;24.88;15.63;;;1.00;99.90;;;;;;4988965;28;20082;-63
2023/03/10 06:56:11;;;;;;;43.00;18.17;;;1.00;99.90;;;;;;4993675;28;20497;-64
2023/03/10 06:58:38;;;;;;;19.45;12.23;;;1.00;99.90;;;;;;4989918;28;20532;-63
2023/03/10 07:01:06;;;;;;;24.27;17.25;;;1.00;99.90;;;;;;4989044;28;20038;-63
2023/03/10 07:03:32;;;;;;;28.52;17.88;;;1.00;99.90;;;;;;4972770;28;20046;-63
2023/03/10 07:05:58;;;;;;;29.58;17.98;;;1.00;99.90;;;;;;4971409;28;20077;-63
2023/03/10 07:08:28;;;;;;;27.70;18.23;;;1.00;99.90;;;;;;4990140;28;20049;-63
2023/03/10 07:10:54;;;;;;;29.50;14.65;;;1.00;99.90;;;;;;4988826;28;20038;-63
2023/03/10 07:13:21;;;;;;;34.20;20.35;;;1.00;99.90;;;;;;4989885;28;20109;-63
2023/03/10 07:15:47;;;;;;;30.63;19.35;;;1.00;99.90;;;;;;4990131;28;20501;-63
2023/03/10 07:18:14;;;;;;;28.23;19.05;;;1.00;99.90;;;;;;4989167;28;20046;-63
2023/03/10 07:20:43;;;;;;;29.90;16.23;;;1.00;99.90;;;;;;4990558;28;20061;-63
2023/03/10 07:23:09;;;;;;;27.50;16.73;;;0.90;99.90;;;;;;4988126;28;20066;-63
2023/03/10 07:25:36;;;;;;;28.17;17.75;;;0.90;99.90;;;;;;4990275;28;20109;-63
2023/03/10 07:28:03;;;;;;;25.20;17.13;;;1.00;99.90;;;;;;4988739;28;20409;-63
2023/03/10 07:30:29;;;;;;;24.65;16.45;;;1.00;99.90;;;;;;4989846;28;20501;-63
2023/03/10 07:32:55;;;;;;;34.75;19.75;;;1.00;99.90;;;;;;4998292;28;20097;-63
2023/03/10 07:35:20;;;;;;;31.60;17.52;;;0.90;99.90;;;;;;4997434;28;20053;-63
2023/03/10 07:37:46;;;;;;;26.70;17.83;;;1.00;99.90;;;;;;4994785;28;20050;-63
2023/03/10 07:40:12;;;;;;;27.25;17.23;;;1.00;99.90;;;;;;4983120;28;20085;-63
2023/03/10 07:42:38;;;;;;;35.42;19.85;;;0.90;99.90;;;;;;4977003;28;20146;-63
2023/03/10 07:45:04;;;;;;;28.48;18.13;;;0.90;99.90;;;;;;4995705;28;20046;-63
2023/03/10 07:47:30;;;;;;;30.45;17.25;;;0.90;99.90;;;;;;4981872;28;20046;-63
2023/03/10 07:49:55;;;;;;;32.15;18.90;;;0.90;99.90;;;;;;4995391;28;20412;-62
2023/03/10 07:52:21;;;;;;;28.75;18.23;;;0.90;99.90;;;;;;4998422;28;20081;-63
2023/03/10 07:54:47;;;;;;;28.73;15.88;;;1.00;99.90;;;;;;4995007;28;20042;-63
2023/03/10 07:57:13;;;;;;;30.50;17.92;;;1.00;99.90;;;;;;4959993;28;20045;-63
2023/03/10 07:59:40;;;;;;;28.98;17.10;;;1.00;99.90;;;;;;4999123;28;20058;-63
2023/03/10 08:02:06;;;;;;;26.60;16.73;;;0.90;99.90;;;;;;4997739;28;20046;-63
2023/03/10 08:04:32;;;;;;;34.10;17.65;;;1.00;99.90;;;;;;4989144;28;20073;-62
2023/03/10 08:07:01;;;;;;;27.58;17.20;;;1.00;99.90;;;;;;4973385;28;20119;-62
2023/03/10 08:09:28;;;;;;;29.10;17.25;;;1.00;99.90;;;;;;4993555;28;20504;-62
2023/03/10 08:11:56;;;;;;;25.35;16.35;;;1.00;99.90;;;;;;4989018;28;20105;-62
2023/03/10 08:14:22;;;;;;;30.73;19.77;;;1.20;99.90;;;;;;4994144;28;20068;-62
2023/03/10 08:16:50;;;;;;;28.42;17.20;;;1.20;99.90;;;;;;4995314;28;20039;-62
2023/03/10 08:19:15;;;;;;;30.98;18.73;;;1.20;99.90;;;;;;4987194;28;20454;-62
2023/03/10 08:21:42;;;;;;;32.00;19.58;;;1.20;99.90;;;;;;4990095;28;20061;-62
2023/03/10 08:24:08;;;;;;;30.65;18.25;;;1.30;99.90;;;;;;4982129;28;20050;-61
2023/03/10 08:26:34;;;;;;;27.40;18.60;;;1.30;99.90;;;;;;4990897;28;20109;-62
2023/03/10 08:29:00;;;;;;;31.63;16.95;;;1.30;99.90;;;;;;4976007;28;20050;-62
2023/03/10 08:31:26;;;;;;;28.83;18.95;;;1.30;99.90;;;;;;4972732;28;20657;-62
2023/03/10 08:33:57;;;;;;;26.98;17.33;;;1.30;99.90;;;;;;4988606;28;20043;-61
2023/03/10 08:36:25;;;;;;;28.40;17.52;;;1.30;99.90;;;;;;4993862;28;20431;-62
2023/03/10 08:38:52;;;;;;;24.45;17.75;;;1.30;99.90;;;;;;4994596;28;20120;-61
2023/03/10 08:41:28;;;;;;;28.67;19.00;;;1.30;99.90;;;;;;4993493;28;20049;-62
2023/03/10 08:43:56;;;;;;;28.38;17.60;;;1.30;99.90;;;;;;4993743;28;20109;-62
2023/03/10 08:46:24;;;;;;;26.38;17.20;;;1.30;99.90;;;;;;4992975;28;20408;-62
2023/03/10 08:48:50;;;;;;;26.67;17.83;;;1.30;99.90;;;;;;4994201;28;20461;-62
2023/03/10 08:51:17;;;;;;;29.05;18.40;;;1.30;99.90;;;;;;5000771;28;20395;-62
2023/03/10 08:53:45;;;;;;;29.05;19.30;;;1.30;99.90;;;;;;4993977;28;20077;-62
2023/03/10 08:56:12;;;;;;;30.63;20.45;;;1.30;99.90;;;;;;4974027;28;20058;-62
2023/03/10 08:58:37;;;;;;;28.33;17.25;;;1.30;99.90;;;;;;4994899;28;20056;-62
2023/03/10 09:01:04;;;;;;;21.52;12.57;;;1.30;99.90;;;;;;4999226;28;20046;-62
2023/03/10 09:03:29;;;;;;;26.33;17.15;;;1.30;99.90;;;;;;4994445;28;20128;-62
2023/03/10 09:05:55;;;;;;;31.52;18.70;;;1.30;99.90;;;;;;4990600;28;20129;-62
2023/03/10 09:08:21;;;;;;;27.73;17.40;;;1.30;99.90;;;;;;4969963;28;20046;-62
2023/03/10 09:10:47;;;;;;;26.85;18.90;;;1.40;99.90;;;;;;4972716;28;20046;-62
2023/03/10 09:13:13;;;;;;;32.00;20.52;;;1.50;99.90;;;;;;4987604;28;20054;-62
2023/03/10 09:15:40;;;;;;;29.30;18.17;;;1.50;99.90;;;;;;4986520;28;20467;-62
2023/03/10 09:18:11;;;;;;;23.58;16.20;;;1.50;99.90;;;;;;4987904;28;20604;-62
2023/03/10 09:20:39;;;;;;;22.23;15.60;;;1.50;99.90;;;;;;4986130;28;20109;-62
2023/03/10 09:23:07;;;;;;;25.67;16.52;;;1.50;99.90;;;;;;4987559;28;20053;-62
2023/03/10 09:25:32;;;;;;;24.42;15.55;;;1.50;99.90;;;;;;4987111;28;20050;-62
2023/03/10 09:27:58;;;;;;;28.38;17.13;;;1.50;99.90;;;;;;4986355;28;20112;-63
2023/03/10 09:30:24;;;;;;;23.58;17.65;;;1.50;99.90;;;;;;4987316;28;20477;-63
2023/03/10 09:32:51;;;;;;;31.08;18.92;;;1.50;99.90;;;;;;4987789;28;20046;-62
2023/03/10 09:35:17;;;;;;;24.38;17.13;;;1.50;99.90;;;;;;4987605;28;20038;-63
2023/03/10 09:37:42;;;;;;;26.55;15.90;;;1.50;99.90;;;;;;4985758;28;20365;-63
2023/03/10 09:40:16;;;;;;;26.15;16.52;;;1.60;99.90;;;;;;4994974;28;20052;-63
2023/03/10 09:42:50;;;;;;;23.60;13.90;;;1.50;99.90;;;;;;4973573;28;20050;-63
2023/03/10 09:45:34;;;;;;;23.70;16.55;;;1.50;99.90;;;;;;4989112;28;20045;-63
2023/03/10 09:48:06;;;;;;;23.23;15.13;;;1.50;99.90;;;;;;4999110;28;20511;-63
2023/03/10 09:50:45;;;;;;;26.45;15.07;;;1.50;99.90;;;;;;4984296;28;20054;-64
2023/03/10 09:53:25;;;;;;;18.40;11.27;;;1.50;99.90;;;;;;5000582;28;20042;-63
2023/03/10 09:55:52;;;;;;;25.15;17.10;;;1.50;99.90;;;;;;4995261;28;20378;-63
2023/03/10 09:58:34;;;;;;;22.38;15.48;;;1.50;99.90;;;;;;4995251;28;20408;-64
2023/03/10 10:01:01;;;;;;;24.02;16.25;;;1.50;99.90;;;;;;4996937;28;20397;-64
2023/03/10 10:03:35;;;;;;;24.58;15.93;;;1.50;99.90;;;;;;4989002;28;20047;-63
2023/03/10 10:06:04;;;;;;;27.60;16.52;;;1.60;99.90;;;;;;4996829;28;20046;-64
2023/03/10 10:08:41;;;;;;;22.33;13.95;;;1.60;99.90;;;;;;4996058;28;20521;-64
2023/03/10 10:11:14;;;;;;;23.00;15.63;;;1.50;99.90;;;;;;4991036;28;20397;-64
2023/03/10 10:13:40;;;;;;;26.25;15.40;;;1.50;99.90;;;;;;4990482;28;20112;-64
2023/03/10 10:16:28;;;;;;;26.70;17.25;;;1.50;99.90;;;;;;4971892;28;20089;-64
2023/03/10 10:19:18;;;;;;;24.45;16.60;;;1.60;99.90;;;;;;4991263;28;20034;-64
2023/03/10 10:22:03;;;;;;;23.60;15.85;;;1.70;99.90;;;;;;4998007;28;20090;-64
2023/03/10 10:24:29;;;;;;;24.75;16.77;;;1.80;99.90;;;;;;4977451;28;20395;-65
2023/03/10 10:26:55;;;;;;;28.02;15.95;;;1.80;99.90;;;;;;5001050;28;20460;-65
2023/03/10 10:29:24;;;;;;;27.23;20.23;;;1.90;99.90;;;;;;4995294;28;20137;-65
2023/03/10 10:32:02;;;;;;;25.30;17.23;;;1.80;99.90;;;;;;4996298;28;20133;-64
2023/03/10 10:34:27;;;;;;;24.08;16.27;;;1.80;99.90;;;;;;4988749;28;20045;-65
2023/03/10 10:36:55;;;;;;;29.58;16.85;;;1.90;99.90;;;;;;4987868;28;20034;-65
2023/03/10 10:39:24;;;;;;;25.42;16.42;;;2.00;99.90;;;;;;5002573;28;20037;-65
2023/03/10 10:41:50;;;;;;;22.05;14.57;;;1.90;99.90;;;;;;5000837;28;20531;-65
2023/03/10 10:44:16;;;;;;;24.48;15.30;;;2.00;99.90;;;;;;5001814;28;20033;-65
2023/03/10 10:46:54;;;;;;;25.52;17.27;;;2.10;99.90;;;;;;5001919;28;20054;-65
2023/03/10 10:49:38;;;;;;;22.35;15.40;;;2.10;99.90;;;;;;4997283;28;20124;-65
2023/03/10 10:52:17;;;;;;;24.00;15.07;;;2.00;99.90;;;;;;4996287;28;20174;-65
2023/03/10 10:54:52;;;;;;;21.58;15.55;;;1.90;99.90;;;;;;4986353;28;20108;-65
2023/03/10 10:57:34;;;;;;;21.63;14.98;;;1.90;99.90;;;;;;4999074;28;20042;-65
2023/03/10 11:00:25;;;;;;;21.52;15.70;;;1.90;99.90;;;;;;4994411;28;20057;-65
2023/03/10 11:02:52;;;;;;;22.90;14.18;;;1.90;99.90;;;;;;4976324;28;20050;-66
2023/03/10 11:05:24;;;;;;;24.50;13.98;;;1.90;99.90;;;;;;5005965;28;20447;-65
2023/03/10 11:07:51;;;;;;;22.92;15.93;;;1.90;99.90;;;;;;4995582;28;20512;-65
2023/03/10 11:10:37;;;;;;;21.08;14.85;;;1.90;99.90;;;;;;4993399;28;20121;-65
2023/03/10 11:13:18;;;;;;;27.23;17.52;;;1.90;99.90;;;;;;4990671;28;20312;-65
2023/03/10 11:16:05;;;;;;;27.13;17.83;;;1.90;99.90;;;;;;4997211;28;20060;-65
2023/03/10 11:18:36;;;;;;;29.92;16.08;;;2.00;99.90;;;;;;4988450;28;20543;-65
2023/03/10 11:21:15;;;;;;;26.00;16.38;;;2.00;99.90;;;;;;4991398;28;20133;-65
2023/03/10 11:23:47;;;;;;;26.25;15.95;;;2.10;99.90;;;;;;4978351;28;20505;-65
2023/03/10 11:26:31;;;;;;;23.23;14.40;;;2.00;99.90;;;;;;4983557;28;20053;-65
2023/03/10 11:29:27;;;;;;;20.38;13.75;;;2.00;99.90;;;;;;4992265;28;20112;-65
2023/03/10 11:32:31;;;;;;;22.63;15.57;;;2.00;99.90;;;;;;4995562;28;20085;-65
2023/03/10 11:34:57;;;;;;;28.05;18.05;;;2.00;99.90;;;;;;5003232;28;20077;-65
2023/03/10 11:37:38;;;;;;;19.75;14.60;;;1.90;99.90;;;;;;4987760;28;20539;-66
2023/03/10 11:40:18;;;;;;;25.33;17.10;;;1.90;99.90;;;;;;4998324;28;20053;-65
2023/03/10 11:43:22;;;;;;;27.48;16.38;;;1.90;99.90;;;;;;4987345;28;20492;-65
2023/03/10 11:45:52;;;;;;;21.73;15.10;;;1.80;99.90;;;;;;4980028;28;20093;-65
2023/03/10 11:48:36;;;;;;;25.15;12.98;;;1.70;99.90;;;;;;4992380;28;20117;-65
2023/03/10 11:51:04;;;;;;;22.55;14.57;;;1.80;99.90;;;;;;4991485;28;20089;-65
2023/03/10 11:53:50;;;;;;;19.48;14.77;;;1.90;99.90;;;;;;4994875;28;20401;-65
2023/03/10 11:56:19;;;;;;;21.00;16.10;;;1.90;99.90;;;;;;4970542;28;20050;-65
2023/03/10 11:58:51;;;;;;;19.13;13.48;;;1.90;99.90;;;;;;5004374;28;20129;-66
2023/03/10 12:01:32;;;;;;;26.88;14.68;;;1.90;99.90;;;;;;5001224;28;20086;-65
2023/03/10 12:04:29;;;;;;;20.92;13.82;;;1.90;99.90;;;;;;4986016;28;20046;-65
2023/03/10 12:07:16;;;;;;;20.50;13.27;;;1.90;99.90;;;;;;4991867;28;20042;-65
2023/03/10 12:09:49;;;;;;;21.80;14.18;;;1.90;99.90;;;;;;4991602;28;20074;-65
2023/03/10 12:12:20;;;;;;;20.33;13.98;;;1.90;99.90;;;;;;4987736;28;20378;-65
2023/03/10 12:14:47;;;;;;;18.77;12.65;;;1.80;99.90;;;;;;4975297;28;20444;-65
2023/03/10 12:17:15;;;;;;;20.70;14.27;;;1.80;99.90;;;;;;4987692;28;20047;-65
2023/03/10 12:20:13;;;;;;;18.55;13.02;;;1.80;99.90;;;;;;4988630;28;20054;-65
2023/03/10 12:22:53;;;;;;;18.52;13.55;;;1.70;99.90;;;;;;4981049;28;20054;-65
2023/03/10 12:25:27;;;;;;;19.10;14.02;;;1.70;99.90;;;;;;5004379;28;20042;-66
2023/03/10 12:28:15;;;;;;;14.65;9.80;;;1.70;99.90;;;;;;4991153;28;20054;-65
2023/03/10 12:31:02;;;;;;;17.40;11.70;;;1.80;99.90;;;;;;4986996;28;20054;-65
2023/03/10 12:33:32;;;;;;;15.60;12.10;;;1.70;99.90;;;;;;4999564;28;20573;-66
2023/03/10 12:36:33;;;;;;;17.63;12.85;;;1.70;99.90;;;;;;4994487;28;20181;-65
2023/03/10 12:39:27;;;;;;;19.52;14.63;;;1.80;99.90;;;;;;4956780;28;20088;-65
2023/03/10 12:41:53;;;;;;;16.30;12.18;;;1.80;99.90;;;;;;4988000;28;20077;-65
2023/03/10 12:44:31;;;;;;;18.58;13.32;;;1.70;99.90;;;;;;4990832;28;20129;-65
2023/03/10 12:46:57;;;;;;;16.08;11.70;;;1.70;99.90;;;;;;4986978;28;20058;-65
2023/03/10 12:49:40;;;;;;;16.55;10.88;;;1.60;99.90;;;;;;4987544;28;20057;-65
2023/03/10 12:52:09;;;;;;;17.30;11.93;;;1.60;99.90;;;;;;4969592;28;20046;-65